Main page
METAR-TAF:

METAR-TAF

Airports :

Guilin, China

Guilin Liangjiang International Airport

latitude: 25-20N, longitude: 110-18E, elevation: 166 m

Current weather observation

The report was made 58 minutes ago, at 04:00 UTC
Wind 4 kt from variable directions
Temperature 33°C
Humidity 59%
Pressure 1011 hPa
Visibility 10 km or more
Few clouds at a height of 3300 ft, Towering cumulus.
Few clouds at a height of 3300 ft

METAR: ZGKL 220400Z VRB02MPS 9999 FEW033TCU FEW033 33/24 Q1011 NOSIG

Time: 12:58 (04:58 UTC)

Forecast

The report was made 9 hours and 46 minutes ago, at 19:12 UTC
Forecast valid from 22 at 00 UTC to 22 at 24 UTC
Wind 6 kt from the South
Visibility 10 km or more
Scattered clouds at a height of 3300 ft
Temporary
from 22 at 06 UTC to 22 at 12 UTC
Few clouds at a height of 3000 ft, Cumulonimbus.
Broken clouds at a height of 5000 ft

TAF: ZGKL 211912Z 2200/2224 18003MPS 9999 SCT033 TX34/2208Z TN24/2222Z TEMPO 2206/2212 FEW030CB BKN050

Weather observations and forecasts of more than 4000 airports (METAR and TAF reports).

The available stations are represented by yellow and red dots on the map.

Hover mouse over dot to see the name of the station.

Then click to see weather observations and forecasts.

To change the map : click on the green buttons with a black cross to zoom in, on the green button with a dash to zoom out, or on the green arrows for adjacent maps.


METAR-TAF: